Aviation Digital Data Service (ADDS)

Output produced by METARs form (1443 UTC 20 September 2017)
found at http://www.aviationweather.gov/adds/metars/
 
OTBD 201400Z 08008KT 8000 NSC 35/24 Q1003 NOSIG
TAF OTBD 200500Z 2006/2112 06007KT CAVOK 
     PROB30 
     TEMPO 2020/2106 VRB02KT 5000 HZ
       
OTBH 201358Z 09009KT 9000 HZ CLR 37/23 A2962 RMK AO2A SLP031 T03670228 $
TAF OTBH 200710Z 2007/2113 VRB06KT 9000 HZ FEW120 QNH2963INS 
     BECMG 2012/2013 08009KT 9000 HZ SKC QNH2962INS 
     BECMG 2016/2017 VRB06KT 8000 HZ SKC QNH2963INS 
     BECMG 2106/2107 10012KT 9000 HZ SKC QNH2961INS TX40/2012Z TN27/2102Z